sensor_id;sensor_type;location;lat;lon;timestamp;temperature;humidity
66728;DHT22;53641;44.274;19.890;2022-12-07T00:00:50;10.40;99.90
66728;DHT22;53641;44.274;19.890;2022-12-07T00:03:16;10.50;99.90
66728;DHT22;53641;44.274;19.890;2022-12-07T00:05:42;10.50;99.90
66728;DHT22;53641;44.274;19.890;2022-12-07T00:08:07;10.50;99.90
66728;DHT22;53641;44.274;19.890;2022-12-07T00:10:34;10.50;99.90
66728;DHT22;53641;44.274;19.890;2022-12-07T00:12:59;10.50;99.90
66728;DHT22;53641;44.274;19.890;2022-12-07T00:15:25;10.60;99.90
66728;DHT22;53641;44.274;19.890;2022-12-07T00:17:51;10.50;99.90
66728;DHT22;53641;44.274;19.890;2022-12-07T00:20:17;10.50;99.90
66728;DHT22;53641;44.274;19.890;2022-12-07T00:22:42;10.30;99.90
66728;DHT22;53641;44.274;19.890;2022-12-07T00:25:08;10.30;99.90
66728;DHT22;53641;44.274;19.890;2022-12-07T00:27:34;10.10;99.90
66728;DHT22;53641;44.274;19.890;2022-12-07T00:30:00;10.20;99.90
66728;DHT22;53641;44.274;19.890;2022-12-07T00:32:26;10.00;99.90
66728;DHT22;53641;44.274;19.890;2022-12-07T00:34:52;9.90;99.90
66728;DHT22;53641;44.274;19.890;2022-12-07T00:37:17;9.90;99.90
66728;DHT22;53641;44.274;19.890;2022-12-07T00:39:43;9.60;99.90
66728;DHT22;53641;44.274;19.890;2022-12-07T00:42:10;9.50;99.90
66728;DHT22;53641;44.274;19.890;2022-12-07T00:44:36;9.60;99.90
66728;DHT22;53641;44.274;19.890;2022-12-07T00:47:02;9.50;99.90
66728;DHT22;53641;44.274;19.890;2022-12-07T00:49:28;9.40;99.90
66728;DHT22;53641;44.274;19.890;2022-12-07T00:51:53;9.30;99.90
66728;DHT22;53641;44.274;19.890;2022-12-07T00:54:19;9.40;99.90
66728;DHT22;53641;44.274;19.890;2022-12-07T00:56:45;9.40;99.90
66728;DHT22;53641;44.274;19.890;2022-12-07T00:59:13;9.60;99.90
66728;DHT22;53641;44.274;19.890;2022-12-07T01:01:42;9.70;99.90
66728;DHT22;53641;44.274;19.890;2022-12-07T01:04:08;9.80;99.90
66728;DHT22;53641;44.274;19.890;2022-12-07T01:06:33;10.00;99.90
66728;DHT22;53641;44.274;19.890;2022-12-07T01:09:00;10.00;99.90
66728;DHT22;53641;44.274;19.890;2022-12-07T01:11:28;10.00;99.90
66728;DHT22;53641;44.274;19.890;2022-12-07T01:13:56;10.00;99.90
66728;DHT22;53641;44.274;19.890;2022-12-07T01:16:23;10.00;99.90
66728;DHT22;53641;44.274;19.890;2022-12-07T01:18:51;10.20;99.90
66728;DHT22;53641;44.274;19.890;2022-12-07T01:21:22;10.30;99.90
66728;DHT22;53641;44.274;19.890;2022-12-07T01:23:49;10.20;99.90
66728;DHT22;53641;44.274;19.890;2022-12-07T01:26:17;10.00;99.90
66728;DHT22;53641;44.274;19.890;2022-12-07T01:28:43;10.00;99.90
66728;DHT22;53641;44.274;19.890;2022-12-07T01:31:20;10.00;99.90
66728;DHT22;53641;44.274;19.890;2022-12-07T01:33:49;9.80;99.90
66728;DHT22;53641;44.274;19.890;2022-12-07T01:36:18;9.60;99.90
66728;DHT22;53641;44.274;19.890;2022-12-07T01:38:46;9.40;99.90
66728;DHT22;53641;44.274;19.890;2022-12-07T01:41:13;9.30;99.90
66728;DHT22;53641;44.274;19.890;2022-12-07T01:44:14;9.40;99.90
66728;DHT22;53641;44.274;19.890;2022-12-07T01:46:44;9.50;99.90
66728;DHT22;53641;44.274;19.890;2022-12-07T01:49:29;9.80;99.90
66728;DHT22;53641;44.274;19.890;2022-12-07T01:52:03;9.90;99.90
66728;DHT22;53641;44.274;19.890;2022-12-07T01:54:33;9.70;99.90
66728;DHT22;53641;44.274;19.890;2022-12-07T01:57:01;9.60;99.90
66728;DHT22;53641;44.274;19.890;2022-12-07T01:59:27;9.60;99.90
66728;DHT22;53641;44.274;19.890;2022-12-07T02:01:54;9.50;99.90
66728;DHT22;53641;44.274;19.890;2022-12-07T02:04:22;9.50;99.90
66728;DHT22;53641;44.274;19.890;2022-12-07T02:06:48;9.50;99.90
66728;DHT22;53641;44.274;19.890;2022-12-07T02:09:14;9.50;99.90
66728;DHT22;53641;44.274;19.890;2022-12-07T02:11:41;9.60;99.90
66728;DHT22;53641;44.274;19.890;2022-12-07T02:14:06;9.40;99.90
66728;DHT22;53641;44.274;19.890;2022-12-07T02:16:59;9.40;99.90
66728;DHT22;53641;44.274;19.890;2022-12-07T02:19:45;9.50;99.90
66728;DHT22;53641;44.274;19.890;2022-12-07T02:22:42;9.50;99.90
66728;DHT22;53641;44.274;19.890;2022-12-07T02:25:38;9.50;99.90
66728;DHT22;53641;44.274;19.890;2022-12-07T02:28:10;9.70;99.90
66728;DHT22;53641;44.274;19.890;2022-12-07T02:30:45;9.70;99.90
66728;DHT22;53641;44.274;19.890;2022-12-07T02:33:17;9.70;99.90
66728;DHT22;53641;44.274;19.890;2022-12-07T02:35:55;9.70;99.90
66728;DHT22;53641;44.274;19.890;2022-12-07T02:38:28;9.70;99.90
66728;DHT22;53641;44.274;19.890;2022-12-07T02:40:59;9.50;99.90
66728;DHT22;53641;44.274;19.890;2022-12-07T02:43:28;9.60;99.90
66728;DHT22;53641;44.274;19.890;2022-12-07T02:46:02;9.70;99.90
66728;DHT22;53641;44.274;19.890;2022-12-07T02:48:31;9.80;99.90
66728;DHT22;53641;44.274;19.890;2022-12-07T02:50:58;9.90;99.90
66728;DHT22;53641;44.274;19.890;2022-12-07T02:53:35;10.00;99.90
66728;DHT22;53641;44.274;19.890;2022-12-07T02:56:40;10.10;99.90
66728;DHT22;53641;44.274;19.890;2022-12-07T02:59:16;9.90;99.90
66728;DHT22;53641;44.274;19.890;2022-12-07T03:02:17;9.90;99.90
66728;DHT22;53641;44.274;19.890;2022-12-07T03:05:13;9.90;99.90
66728;DHT22;53641;44.274;19.890;2022-12-07T03:08:00;10.00;99.90
66728;DHT22;53641;44.274;19.890;2022-12-07T03:10:59;9.90;99.90
66728;DHT22;53641;44.274;19.890;2022-12-07T03:13:39;9.90;99.90
66728;DHT22;53641;44.274;19.890;2022-12-07T03:16:16;9.80;99.90
66728;DHT22;53641;44.274;19.890;2022-12-07T03:18:48;9.80;99.90
66728;DHT22;53641;44.274;19.890;2022-12-07T03:21:18;9.90;99.90
66728;DHT22;53641;44.274;19.890;2022-12-07T03:23:50;10.00;99.90
66728;DHT22;53641;44.274;19.890;2022-12-07T03:26:17;10.00;99.90
66728;DHT22;53641;44.274;19.890;2022-12-07T03:28:49;10.10;99.90
66728;DHT22;53641;44.274;19.890;2022-12-07T03:31:22;10.20;99.90
66728;DHT22;53641;44.274;19.890;2022-12-07T03:34:11;10.10;99.90
66728;DHT22;53641;44.274;19.890;2022-12-07T03:36:47;10.10;99.90
66728;DHT22;53641;44.274;19.890;2022-12-07T03:39:30;10.10;99.90
66728;DHT22;53641;44.274;19.890;2022-12-07T03:42:00;10.20;99.90
66728;DHT22;53641;44.274;19.890;2022-12-07T03:44:27;10.30;99.90
66728;DHT22;53641;44.274;19.890;2022-12-07T03:47:05;10.40;99.90
66728;DHT22;53641;44.274;19.890;2022-12-07T03:49:52;10.40;99.90
66728;DHT22;53641;44.274;19.890;2022-12-07T03:52:31;10.30;99.90
66728;DHT22;53641;44.274;19.890;2022-12-07T03:55:18;10.20;99.90
66728;DHT22;53641;44.274;19.890;2022-12-07T03:57:47;10.30;99.90
66728;DHT22;53641;44.274;19.890;2022-12-07T04:00:15;10.30;99.90
66728;DHT22;53641;44.274;19.890;2022-12-07T04:02:41;10.10;99.90
66728;DHT22;53641;44.274;19.890;2022-12-07T04:05:08;10.00;99.90
66728;DHT22;53641;44.274;19.890;2022-12-07T04:07:34;9.90;99.90
66728;DHT22;53641;44.274;19.890;2022-12-07T04:09:59;9.90;99.90
66728;DHT22;53641;44.274;19.890;2022-12-07T04:12:25;10.00;99.90
66728;DHT22;53641;44.274;19.890;2022-12-07T04:14:51;10.00;99.90
66728;DHT22;53641;44.274;19.890;2022-12-07T04:17:17;9.90;99.90
66728;DHT22;53641;44.274;19.890;2022-12-07T04:19:42;9.90;99.90
66728;DHT22;53641;44.274;19.890;2022-12-07T04:22:08;10.00;99.90
66728;DHT22;53641;44.274;19.890;2022-12-07T04:24:34;10.00;99.90
66728;DHT22;53641;44.274;19.890;2022-12-07T04:27:00;10.00;99.90
66728;DHT22;53641;44.274;19.890;2022-12-07T04:29:26;9.90;99.90
66728;DHT22;53641;44.274;19.890;2022-12-07T04:31:52;10.10;99.90
66728;DHT22;53641;44.274;19.890;2022-12-07T04:34:19;10.00;99.90
66728;DHT22;53641;44.274;19.890;2022-12-07T04:36:46;10.00;99.90
66728;DHT22;53641;44.274;19.890;2022-12-07T04:39:23;10.10;99.90
66728;DHT22;53641;44.274;19.890;2022-12-07T04:41:49;10.10;99.90
66728;DHT22;53641;44.274;19.890;2022-12-07T04:44:15;9.90;99.90
66728;DHT22;53641;44.274;19.890;2022-12-07T04:46:42;9.80;99.90
66728;DHT22;53641;44.274;19.890;2022-12-07T04:49:08;9.80;99.90
66728;DHT22;53641;44.274;19.890;2022-12-07T04:51:34;9.80;99.90
66728;DHT22;53641;44.274;19.890;2022-12-07T04:54:00;9.80;99.90
66728;DHT22;53641;44.274;19.890;2022-12-07T04:56:26;9.60;99.90
66728;DHT22;53641;44.274;19.890;2022-12-07T04:58:53;9.60;99.90
66728;DHT22;53641;44.274;19.890;2022-12-07T05:01:19;9.60;99.90
66728;DHT22;53641;44.274;19.890;2022-12-07T05:03:45;9.80;99.90
66728;DHT22;53641;44.274;19.890;2022-12-07T05:06:11;9.80;99.90
66728;DHT22;53641;44.274;19.890;2022-12-07T05:08:38;9.70;99.90
66728;DHT22;53641;44.274;19.890;2022-12-07T05:11:05;9.70;99.90
66728;DHT22;53641;44.274;19.890;2022-12-07T05:13:31;9.80;99.90
66728;DHT22;53641;44.274;19.890;2022-12-07T05:15:57;9.80;99.90
66728;DHT22;53641;44.274;19.890;2022-12-07T05:18:23;9.50;99.90
66728;DHT22;53641;44.274;19.890;2022-12-07T05:20:49;9.30;99.90
66728;DHT22;53641;44.274;19.890;2022-12-07T05:23:16;9.60;99.90
66728;DHT22;53641;44.274;19.890;2022-12-07T05:25:42;9.70;99.90
66728;DHT22;53641;44.274;19.890;2022-12-07T05:28:08;9.90;99.90
66728;DHT22;53641;44.274;19.890;2022-12-07T05:30:34;9.80;99.90
66728;DHT22;53641;44.274;19.890;2022-12-07T05:33:00;9.80;99.90
66728;DHT22;53641;44.274;19.890;2022-12-07T05:35:26;9.80;99.90
66728;DHT22;53641;44.274;19.890;2022-12-07T05:37:52;9.80;99.90
66728;DHT22;53641;44.274;19.890;2022-12-07T05:40:20;9.90;99.90
66728;DHT22;53641;44.274;19.890;2022-12-07T05:42:46;9.90;99.90
66728;DHT22;53641;44.274;19.890;2022-12-07T05:45:12;10.00;99.90
66728;DHT22;53641;44.274;19.890;2022-12-07T05:47:38;10.00;99.90
66728;DHT22;53641;44.274;19.890;2022-12-07T05:50:05;10.20;99.90
66728;DHT22;53641;44.274;19.890;2022-12-07T05:52:31;10.30;99.90
66728;DHT22;53641;44.274;19.890;2022-12-07T05:54:57;10.40;99.90
66728;DHT22;53641;44.274;19.890;2022-12-07T05:57:23;10.50;99.90
66728;DHT22;53641;44.274;19.890;2022-12-07T05:59:49;10.20;99.90
66728;DHT22;53641;44.274;19.890;2022-12-07T06:02:16;10.30;99.90
66728;DHT22;53641;44.274;19.890;2022-12-07T06:04:44;10.30;99.90
66728;DHT22;53641;44.274;19.890;2022-12-07T06:07:12;10.50;99.90
66728;DHT22;53641;44.274;19.890;2022-12-07T06:09:38;10.60;99.90
66728;DHT22;53641;44.274;19.890;2022-12-07T06:12:05;10.50;99.90
66728;DHT22;53641;44.274;19.890;2022-12-07T06:14:50;10.40;99.90
66728;DHT22;53641;44.274;19.890;2022-12-07T06:17:17;10.50;99.90
66728;DHT22;53641;44.274;19.890;2022-12-07T06:19:43;10.50;99.90
66728;DHT22;53641;44.274;19.890;2022-12-07T06:22:09;10.60;99.90
66728;DHT22;53641;44.274;19.890;2022-12-07T06:24:36;10.70;99.90
66728;DHT22;53641;44.274;19.890;2022-12-07T06:27:01;10.60;99.90
66728;DHT22;53641;44.274;19.890;2022-12-07T06:29:27;10.70;99.90
66728;DHT22;53641;44.274;19.890;2022-12-07T06:31:53;10.60;99.90
66728;DHT22;53641;44.274;19.890;2022-12-07T06:34:21;10.80;99.90
66728;DHT22;53641;44.274;19.890;2022-12-07T06:36:48;10.80;99.90
66728;DHT22;53641;44.274;19.890;2022-12-07T06:39:20;10.80;99.90
66728;DHT22;53641;44.274;19.890;2022-12-07T06:41:47;10.90;99.90
66728;DHT22;53641;44.274;19.890;2022-12-07T06:44:13;10.90;99.90
66728;DHT22;53641;44.274;19.890;2022-12-07T06:46:38;10.80;99.90
66728;DHT22;53641;44.274;19.890;2022-12-07T06:49:07;10.90;99.90
66728;DHT22;53641;44.274;19.890;2022-12-07T06:51:33;10.90;99.90
66728;DHT22;53641;44.274;19.890;2022-12-07T06:54:02;10.80;99.90
66728;DHT22;53641;44.274;19.890;2022-12-07T06:56:29;10.80;99.90
66728;DHT22;53641;44.274;19.890;2022-12-07T06:58:55;10.80;99.90
66728;DHT22;53641;44.274;19.890;2022-12-07T07:01:21;10.80;99.90
66728;DHT22;53641;44.274;19.890;2022-12-07T07:03:47;10.80;99.90
66728;DHT22;53641;44.274;19.890;2022-12-07T07:06:14;10.70;99.90
66728;DHT22;53641;44.274;19.890;2022-12-07T07:08:41;10.60;99.90
66728;DHT22;53641;44.274;19.890;2022-12-07T07:11:08;10.60;99.90
66728;DHT22;53641;44.274;19.890;2022-12-07T07:13:44;10.60;99.90
66728;DHT22;53641;44.274;19.890;2022-12-07T07:16:10;10.70;99.90
66728;DHT22;53641;44.274;19.890;2022-12-07T07:18:38;10.60;99.90
66728;DHT22;53641;44.274;19.890;2022-12-07T07:21:14;10.70;99.90
66728;DHT22;53641;44.274;19.890;2022-12-07T07:23:40;10.70;99.90
66728;DHT22;53641;44.274;19.890;2022-12-07T07:26:05;10.70;99.90
66728;DHT22;53641;44.274;19.890;2022-12-07T07:28:31;10.70;99.90
66728;DHT22;53641;44.274;19.890;2022-12-07T07:30:57;10.50;99.90
66728;DHT22;53641;44.274;19.890;2022-12-07T07:33:23;10.70;99.90
66728;DHT22;53641;44.274;19.890;2022-12-07T07:35:48;10.70;99.90
66728;DHT22;53641;44.274;19.890;2022-12-07T07:38:14;10.70;99.90
66728;DHT22;53641;44.274;19.890;2022-12-07T07:40:40;10.80;99.90
66728;DHT22;53641;44.274;19.890;2022-12-07T07:43:06;10.70;99.90
66728;DHT22;53641;44.274;19.890;2022-12-07T07:45:32;10.60;99.90
66728;DHT22;53641;44.274;19.890;2022-12-07T07:47:58;10.60;99.90
66728;DHT22;53641;44.274;19.890;2022-12-07T07:50:27;10.60;99.90
66728;DHT22;53641;44.274;19.890;2022-12-07T07:52:53;10.60;99.90
66728;DHT22;53641;44.274;19.890;2022-12-07T07:55:19;10.60;99.90
66728;DHT22;53641;44.274;19.890;2022-12-07T07:57:45;10.60;99.90
66728;DHT22;53641;44.274;19.890;2022-12-07T08:00:13;10.50;99.90
66728;DHT22;53641;44.274;19.890;2022-12-07T08:02:39;10.60;99.90
66728;DHT22;53641;44.274;19.890;2022-12-07T08:05:06;10.70;99.90
66728;DHT22;53641;44.274;19.890;2022-12-07T08:07:32;10.60;99.90
66728;DHT22;53641;44.274;19.890;2022-12-07T08:09:58;10.50;99.90
66728;DHT22;53641;44.274;19.890;2022-12-07T08:12:24;10.50;99.90
66728;DHT22;53641;44.274;19.890;2022-12-07T08:14:49;10.50;99.90
66728;DHT22;53641;44.274;19.890;2022-12-07T08:17:15;10.50;99.90
66728;DHT22;53641;44.274;19.890;2022-12-07T08:19:44;10.60;99.90
66728;DHT22;53641;44.274;19.890;2022-12-07T08:22:10;10.60;99.90
66728;DHT22;53641;44.274;19.890;2022-12-07T08:24:36;10.60;99.90
66728;DHT22;53641;44.274;19.890;2022-12-07T08:27:03;10.70;99.90
66728;DHT22;53641;44.274;19.890;2022-12-07T08:29:29;10.80;99.90
66728;DHT22;53641;44.274;19.890;2022-12-07T08:31:55;10.90;99.90
66728;DHT22;53641;44.274;19.890;2022-12-07T08:34:20;10.90;99.90
66728;DHT22;53641;44.274;19.890;2022-12-07T08:36:46;10.90;99.90
66728;DHT22;53641;44.274;19.890;2022-12-07T08:39:12;10.80;99.90
66728;DHT22;53641;44.274;19.890;2022-12-07T08:41:38;10.80;99.90
66728;DHT22;53641;44.274;19.890;2022-12-07T08:44:04;10.80;99.90
66728;DHT22;53641;44.274;19.890;2022-12-07T08:46:36;10.90;99.90
66728;DHT22;53641;44.274;19.890;2022-12-07T08:49:23;10.90;99.90
66728;DHT22;53641;44.274;19.890;2022-12-07T08:51:50;11.10;99.90
66728;DHT22;53641;44.274;19.890;2022-12-07T08:54:17;11.00;99.90
66728;DHT22;53641;44.274;19.890;2022-12-07T08:56:44;11.00;99.90
66728;DHT22;53641;44.274;19.890;2022-12-07T08:59:23;11.10;99.90
66728;DHT22;53641;44.274;19.890;2022-12-07T09:01:49;11.10;99.90
66728;DHT22;53641;44.274;19.890;2022-12-07T09:04:15;11.10;99.90
66728;DHT22;53641;44.274;19.890;2022-12-07T09:06:42;11.10;99.90
66728;DHT22;53641;44.274;19.890;2022-12-07T09:09:09;11.20;99.90
66728;DHT22;53641;44.274;19.890;2022-12-07T09:11:39;11.20;99.90
66728;DHT22;53641;44.274;19.890;2022-12-07T09:14:05;11.20;99.90
66728;DHT22;53641;44.274;19.890;2022-12-07T09:16:37;11.20;99.90
66728;DHT22;53641;44.274;19.890;2022-12-07T09:19:02;11.20;99.90
66728;DHT22;53641;44.274;19.890;2022-12-07T09:21:28;11.10;99.90
66728;DHT22;53641;44.274;19.890;2022-12-07T09:23:54;11.10;99.90
66728;DHT22;53641;44.274;19.890;2022-12-07T09:26:20;11.20;99.90
66728;DHT22;53641;44.274;19.890;2022-12-07T09:28:46;11.20;99.90
66728;DHT22;53641;44.274;19.890;2022-12-07T09:31:11;11.30;99.90
66728;DHT22;53641;44.274;19.890;2022-12-07T09:33:38;11.40;99.90
66728;DHT22;53641;44.274;19.890;2022-12-07T09:36:04;11.40;99.90
66728;DHT22;53641;44.274;19.890;2022-12-07T09:38:40;11.40;99.90
66728;DHT22;53641;44.274;19.890;2022-12-07T09:41:07;11.50;99.90
66728;DHT22;53641;44.274;19.890;2022-12-07T09:43:35;11.30;99.90
66728;DHT22;53641;44.274;19.890;2022-12-07T09:46:02;11.10;99.90
66728;DHT22;53641;44.274;19.890;2022-12-07T09:48:36;11.00;99.90
66728;DHT22;53641;44.274;19.890;2022-12-07T09:51:10;10.90;99.90
66728;DHT22;53641;44.274;19.890;2022-12-07T09:53:39;10.60;99.90
66728;DHT22;53641;44.274;19.890;2022-12-07T09:56:05;10.60;99.90
66728;DHT22;53641;44.274;19.890;2022-12-07T09:58:33;10.70;99.90
66728;DHT22;53641;44.274;19.890;2022-12-07T10:01:05;10.70;99.90
66728;DHT22;53641;44.274;19.890;2022-12-07T10:03:38;10.70;99.90
66728;DHT22;53641;44.274;19.890;2022-12-07T10:06:05;10.50;99.90
66728;DHT22;53641;44.274;19.890;2022-12-07T10:08:32;10.40;99.90
66728;DHT22;53641;44.274;19.890;2022-12-07T10:11:10;10.40;99.90
66728;DHT22;53641;44.274;19.890;2022-12-07T10:13:42;10.40;99.90
66728;DHT22;53641;44.274;19.890;2022-12-07T10:16:41;10.40;99.90
66728;DHT22;53641;44.274;19.890;2022-12-07T10:19:32;10.50;99.90
66728;DHT22;53641;44.274;19.890;2022-12-07T10:25:53;10.70;99.90
66728;DHT22;53641;44.274;19.890;2022-12-07T10:28:44;10.60;99.90
66728;DHT22;53641;44.274;19.890;2022-12-07T10:31:32;10.70;99.90
66728;DHT22;53641;44.274;19.890;2022-12-07T10:34:01;10.80;99.90
66728;DHT22;53641;44.274;19.890;2022-12-07T10:36:36;10.80;99.90
66728;DHT22;53641;44.274;19.890;2022-12-07T10:39:11;10.90;99.90
66728;DHT22;53641;44.274;19.890;2022-12-07T10:41:55;10.90;99.90
66728;DHT22;53641;44.274;19.890;2022-12-07T10:44:27;10.90;99.90
66728;DHT22;53641;44.274;19.890;2022-12-07T10:47:36;10.70;99.90
66728;DHT22;53641;44.274;19.890;2022-12-07T10:50:38;10.70;99.90
66728;DHT22;53641;44.274;19.890;2022-12-07T10:53:21;10.70;99.90
66728;DHT22;53641;44.274;19.890;2022-12-07T10:56:01;10.80;99.90
66728;DHT22;53641;44.274;19.890;2022-12-07T10:58:43;11.00;99.90
66728;DHT22;53641;44.274;19.890;2022-12-07T11:01:29;11.00;99.90
66728;DHT22;53641;44.274;19.890;2022-12-07T11:04:41;11.00;99.90
66728;DHT22;53641;44.274;19.890;2022-12-07T11:07:20;10.90;99.90
66728;DHT22;53641;44.274;19.890;2022-12-07T11:10:08;10.90;99.90
66728;DHT22;53641;44.274;19.890;2022-12-07T11:13:04;10.80;99.90
66728;DHT22;53641;44.274;19.890;2022-12-07T11:15:53;10.80;99.90
66728;DHT22;53641;44.274;19.890;2022-12-07T11:18:31;10.80;99.90
66728;DHT22;53641;44.274;19.890;2022-12-07T11:21:09;10.80;99.90
66728;DHT22;53641;44.274;19.890;2022-12-07T11:23:49;10.60;99.90
66728;DHT22;53641;44.274;19.890;2022-12-07T11:26:31;10.60;99.90
66728;DHT22;53641;44.274;19.890;2022-12-07T11:29:15;10.60;99.90
66728;DHT22;53641;44.274;19.890;2022-12-07T11:33:01;10.70;99.90
66728;DHT22;53641;44.274;19.890;2022-12-07T11:35:19;10.60;99.90
66728;DHT22;53641;44.274;19.890;2022-12-07T11:37:51;10.70;99.90
66728;DHT22;53641;44.274;19.890;2022-12-07T11:40:27;10.70;99.90
66728;DHT22;53641;44.274;19.890;2022-12-07T11:43:09;10.60;99.90
66728;DHT22;53641;44.274;19.890;2022-12-07T11:45:41;10.30;99.90
66728;DHT22;53641;44.274;19.890;2022-12-07T11:48:19;10.30;99.90
66728;DHT22;53641;44.274;19.890;2022-12-07T11:50:56;10.60;99.90
66728;DHT22;53641;44.274;19.890;2022-12-07T11:53:31;10.60;99.90
66728;DHT22;53641;44.274;19.890;2022-12-07T11:56:20;10.80;99.90
66728;DHT22;53641;44.274;19.890;2022-12-07T11:59:08;10.90;99.90
66728;DHT22;53641;44.274;19.890;2022-12-07T12:01:44;10.90;99.90
66728;DHT22;53641;44.274;19.890;2022-12-07T12:04:23;10.90;99.90
66728;DHT22;53641;44.274;19.890;2022-12-07T12:06:51;10.90;99.90
66728;DHT22;53641;44.274;19.890;2022-12-07T12:09:30;10.70;99.90
66728;DHT22;53641;44.274;19.890;2022-12-07T12:12:21;10.70;99.90
66728;DHT22;53641;44.274;19.890;2022-12-07T12:15:00;10.70;99.90
66728;DHT22;53641;44.274;19.890;2022-12-07T12:17:45;10.70;99.90
66728;DHT22;53641;44.274;19.890;2022-12-07T12:20:25;10.80;99.90
66728;DHT22;53641;44.274;19.890;2022-12-07T12:23:10;10.80;99.90
66728;DHT22;53641;44.274;19.890;2022-12-07T12:25:41;10.70;99.90
66728;DHT22;53641;44.274;19.890;2022-12-07T12:28:23;10.60;99.90
66728;DHT22;53641;44.274;19.890;2022-12-07T12:31:13;10.50;99.90
66728;DHT22;53641;44.274;19.890;2022-12-07T12:33:54;10.30;99.90
66728;DHT22;53641;44.274;19.890;2022-12-07T12:36:25;10.30;99.90
66728;DHT22;53641;44.274;19.890;2022-12-07T12:39:13;10.20;99.90
66728;DHT22;53641;44.274;19.890;2022-12-07T12:41:55;10.30;99.90
66728;DHT22;53641;44.274;19.890;2022-12-07T12:44:39;10.30;99.90
66728;DHT22;53641;44.274;19.890;2022-12-07T12:47:43;10.30;99.90
66728;DHT22;53641;44.274;19.890;2022-12-07T12:50:20;10.40;99.90
66728;DHT22;53641;44.274;19.890;2022-12-07T12:52:50;10.40;99.90
66728;DHT22;53641;44.274;19.890;2022-12-07T12:55:18;10.50;99.90
66728;DHT22;53641;44.274;19.890;2022-12-07T12:57:47;10.70;99.90
66728;DHT22;53641;44.274;19.890;2022-12-07T13:00:21;10.70;99.90
66728;DHT22;53641;44.274;19.890;2022-12-07T13:02:49;10.60;99.90
66728;DHT22;53641;44.274;19.890;2022-12-07T13:05:20;10.40;99.90
66728;DHT22;53641;44.274;19.890;2022-12-07T13:07:54;10.10;99.90
66728;DHT22;53641;44.274;19.890;2022-12-07T13:10:33;9.70;99.90
66728;DHT22;53641;44.274;19.890;2022-12-07T13:13:28;9.90;99.90
66728;DHT22;53641;44.274;19.890;2022-12-07T13:19:01;10.40;99.90
66728;DHT22;53641;44.274;19.890;2022-12-07T13:21:42;10.50;99.90
66728;DHT22;53641;44.274;19.890;2022-12-07T13:24:10;10.70;99.90
66728;DHT22;53641;44.274;19.890;2022-12-07T13:26:41;10.90;99.90
66728;DHT22;53641;44.274;19.890;2022-12-07T13:29:16;10.80;99.90
66728;DHT22;53641;44.274;19.890;2022-12-07T13:31:44;10.90;99.90
66728;DHT22;53641;44.274;19.890;2022-12-07T13:34:35;10.90;99.90
66728;DHT22;53641;44.274;19.890;2022-12-07T13:37:04;11.00;99.90
66728;DHT22;53641;44.274;19.890;2022-12-07T13:39:43;11.00;99.90
66728;DHT22;53641;44.274;19.890;2022-12-07T13:42:18;11.00;99.90
66728;DHT22;53641;44.274;19.890;2022-12-07T13:44:55;10.90;99.90
66728;DHT22;53641;44.274;19.890;2022-12-07T13:47:32;10.90;99.90
66728;DHT22;53641;44.274;19.890;2022-12-07T13:50:00;10.80;99.90
66728;DHT22;53641;44.274;19.890;2022-12-07T13:52:29;10.70;99.90
66728;DHT22;53641;44.274;19.890;2022-12-07T13:54:59;10.60;99.90
66728;DHT22;53641;44.274;19.890;2022-12-07T13:57:26;10.60;99.90
66728;DHT22;53641;44.274;19.890;2022-12-07T13:59:52;10.60;99.90
66728;DHT22;53641;44.274;19.890;2022-12-07T14:02:21;10.70;99.90
66728;DHT22;53641;44.274;19.890;2022-12-07T14:04:48;10.60;99.90
66728;DHT22;53641;44.274;19.890;2022-12-07T14:07:24;10.60;99.90
66728;DHT22;53641;44.274;19.890;2022-12-07T14:09:55;10.60;99.90
66728;DHT22;53641;44.274;19.890;2022-12-07T14:12:21;10.60;99.90
66728;DHT22;53641;44.274;19.890;2022-12-07T14:14:48;10.70;99.90
66728;DHT22;53641;44.274;19.890;2022-12-07T14:17:19;10.70;99.90
66728;DHT22;53641;44.274;19.890;2022-12-07T14:19:56;10.60;99.90
66728;DHT22;53641;44.274;19.890;2022-12-07T14:22:25;10.60;99.90
66728;DHT22;53641;44.274;19.890;2022-12-07T14:24:59;10.50;99.90
66728;DHT22;53641;44.274;19.890;2022-12-07T14:27:24;10.60;99.90
66728;DHT22;53641;44.274;19.890;2022-12-07T14:29:56;10.70;99.90
66728;DHT22;53641;44.274;19.890;2022-12-07T14:32:24;10.60;99.90
66728;DHT22;53641;44.274;19.890;2022-12-07T14:35:02;10.50;99.90
66728;DHT22;53641;44.274;19.890;2022-12-07T14:37:35;10.60;99.90
66728;DHT22;53641;44.274;19.890;2022-12-07T14:40:02;10.70;99.90
66728;DHT22;53641;44.274;19.890;2022-12-07T14:42:30;10.70;99.90
66728;DHT22;53641;44.274;19.890;2022-12-07T14:44:56;10.70;99.90
66728;DHT22;53641;44.274;19.890;2022-12-07T14:47:23;10.70;99.90
66728;DHT22;53641;44.274;19.890;2022-12-07T14:49:49;10.70;99.90
66728;DHT22;53641;44.274;19.890;2022-12-07T14:52:18;10.70;99.90
66728;DHT22;53641;44.274;19.890;2022-12-07T14:54:45;10.60;99.90
66728;DHT22;53641;44.274;19.890;2022-12-07T14:57:11;10.50;99.90
66728;DHT22;53641;44.274;19.890;2022-12-07T14:59:37;10.50;99.90
66728;DHT22;53641;44.274;19.890;2022-12-07T15:02:03;10.30;99.90
66728;DHT22;53641;44.274;19.890;2022-12-07T15:04:29;10.30;99.90
66728;DHT22;53641;44.274;19.890;2022-12-07T15:06:57;10.30;99.90
66728;DHT22;53641;44.274;19.890;2022-12-07T15:09:23;10.30;99.90
66728;DHT22;53641;44.274;19.890;2022-12-07T15:11:49;10.20;99.90
66728;DHT22;53641;44.274;19.890;2022-12-07T15:14:15;10.20;99.90
66728;DHT22;53641;44.274;19.890;2022-12-07T15:16:41;10.20;99.90
66728;DHT22;53641;44.274;19.890;2022-12-07T15:19:16;10.20;99.90
66728;DHT22;53641;44.274;19.890;2022-12-07T15:21:43;10.10;99.90
66728;DHT22;53641;44.274;19.890;2022-12-07T15:24:10;10.10;99.90
66728;DHT22;53641;44.274;19.890;2022-12-07T15:26:37;9.90;99.90
66728;DHT22;53641;44.274;19.890;2022-12-07T15:29:03;9.80;99.90
66728;DHT22;53641;44.274;19.890;2022-12-07T15:31:29;9.80;99.90
66728;DHT22;53641;44.274;19.890;2022-12-07T15:33:54;9.90;99.90
66728;DHT22;53641;44.274;19.890;2022-12-07T15:36:27;9.80;99.90
66728;DHT22;53641;44.274;19.890;2022-12-07T15:38:53;9.70;99.90
66728;DHT22;53641;44.274;19.890;2022-12-07T15:41:19;9.60;99.90
66728;DHT22;53641;44.274;19.890;2022-12-07T15:43:45;9.50;99.90
66728;DHT22;53641;44.274;19.890;2022-12-07T15:46:36;9.50;99.90
66728;DHT22;53641;44.274;19.890;2022-12-07T15:49:06;9.40;99.90
66728;DHT22;53641;44.274;19.890;2022-12-07T15:51:34;9.40;99.90
66728;DHT22;53641;44.274;19.890;2022-12-07T15:54:00;9.40;99.90